Time;durP1;ratioP1;P1;durP2;ratioP2;P2;SDS_P1;SDS_P2;PMS_P1;PMS_P2;Temp;Humidity;BMP_temperature;BMP_pressure;BME280_temperature;BME280_humidity;BME280_pressure;Samples;Min_cycle;Max_cycle;Signal;HPM_P1;HPM_P2
2023/09/11 00:00:08;;;;;;;;;;;20.90;99.90;;;;;;5072855;28;19950;-84
2023/09/11 00:02:35;;;;;;;;;;;20.90;99.90;;;;;;5078342;28;19928;-84
2023/09/11 00:05:02;;;;;;;;;;;20.90;99.90;;;;;;5067860;28;19924;-84
2023/09/11 00:07:29;;;;;;;;;;;20.90;99.90;;;;;;5084677;28;19931;-83
2023/09/11 00:09:55;;;;;;;;;;;20.80;99.90;;;;;;5085521;28;19974;-85
2023/09/11 00:12:22;;;;;;;;;;;20.80;99.90;;;;;;5086176;28;19928;-85
2023/09/11 00:14:49;;;;;;;;;;;20.80;99.90;;;;;;5078493;28;19924;-84
2023/09/11 00:17:15;;;;;;;;;;;20.80;99.90;;;;;;5085591;28;19924;-84
2023/09/11 00:19:42;;;;;;;;;;;20.70;99.90;;;;;;5067719;28;19925;-85
2023/09/11 00:22:09;;;;;;;;;;;20.70;99.90;;;;;;5086394;28;19934;-84
2023/09/11 00:24:35;;;;;;;;;;;20.70;99.90;;;;;;5069845;28;19929;-84
2023/09/11 00:27:02;;;;;;;;;;;20.70;99.90;;;;;;5088889;28;20046;-84
2023/09/11 00:29:29;;;;;;;;;;;20.60;99.90;;;;;;5072238;28;19924;-84
2023/09/11 00:31:56;;;;;;;;;;;20.70;99.90;;;;;;5089754;28;19924;-85
2023/09/11 00:34:22;;;;;;;;;;;20.60;99.90;;;;;;5076923;28;19943;-84
2023/09/11 00:36:49;;;;;;;;;;;20.70;99.90;;;;;;5087493;28;19948;-85
2023/09/11 00:39:16;;;;;;;;;;;20.60;99.90;;;;;;5088175;28;19935;-84
2023/09/11 00:41:43;;;;;;;;;;;20.60;99.90;;;;;;5074180;28;20276;-85
2023/09/11 00:44:10;;;;;;;;;;;20.60;99.90;;;;;;5067350;28;19932;-84
2023/09/11 00:46:36;;;;;;;;;;;20.50;99.90;;;;;;5069598;28;19976;-84
2023/09/11 00:49:03;;;;;;;;;;;20.50;99.90;;;;;;5090016;28;20541;-85
2023/09/11 00:51:30;;;;;;;;;;;20.50;99.90;;;;;;5089327;28;19924;-85
2023/09/11 00:53:57;;;;;;;;;;;20.50;99.90;;;;;;5090975;28;19936;-85
2023/09/11 00:56:23;;;;;;;;;;;20.50;99.90;;;;;;5069006;28;20402;-85
2023/09/11 00:58:50;;;;;;;;;;;20.40;99.90;;;;;;5083157;28;19971;-84
2023/09/11 01:01:18;;;;;;;;;;;20.50;99.90;;;;;;5077412;28;20019;-84
2023/09/11 01:03:46;;;;;;;;;;;20.50;99.90;;;;;;5065725;28;19933;-84
2023/09/11 01:06:13;;;;;;;;;;;20.40;99.90;;;;;;5082649;28;19929;-85
2023/09/11 01:08:39;;;;;;;;;;;20.50;99.90;;;;;;5065025;28;19925;-84
2023/09/11 01:11:06;;;;;;;;;;;20.50;99.90;;;;;;5070892;28;19946;-85
2023/09/11 01:13:33;;;;;;;;;;;20.40;99.90;;;;;;5083323;28;19924;-85
2023/09/11 01:16:06;;;;;;;;;;;20.50;99.90;;;;;;5085642;28;19928;-84
2023/09/11 01:18:37;;;;;;;;;;;20.40;99.90;;;;;;5083407;28;19928;-84
2023/09/11 01:21:14;;;;;;;;;;;20.40;99.90;;;;;;5086879;28;19967;-85
2023/09/11 01:23:52;;;;;;;;;;;20.40;99.90;;;;;;5086543;28;19951;-85
2023/09/11 01:26:31;;;;;;;;;;;20.30;99.90;;;;;;5067224;28;19924;-84
2023/09/11 01:28:58;;;;;;;;;;;20.30;99.90;;;;;;5057966;28;19928;-85
2023/09/11 01:31:26;;;;;;;;;;;20.30;99.90;;;;;;5084024;28;20538;-85
2023/09/11 01:33:53;;;;;;;;;;;20.30;99.90;;;;;;5081103;28;20460;-85
2023/09/11 01:36:20;;;;;;;;;;;20.30;99.90;;;;;;5057013;28;19932;-84
2023/09/11 01:38:46;;;;;;;;;;;20.20;99.90;;;;;;5083207;28;20178;-84
2023/09/11 01:41:14;;;;;;;;;;;20.20;99.90;;;;;;5083581;28;20354;-85
2023/09/11 01:43:43;;;;;;;;;;;20.20;99.90;;;;;;5084575;28;19925;-86
2023/09/11 01:46:11;;;;;;;;;;;20.20;99.90;;;;;;5063924;28;19977;-85
2023/09/11 01:48:40;;;;;;;;;;;20.20;99.90;;;;;;5082545;28;19924;-84
2023/09/11 01:51:07;;;;;;;;;;;20.10;99.90;;;;;;5084427;28;19924;-84
2023/09/11 01:53:35;;;;;;;;;;;20.10;99.90;;;;;;5075527;28;19928;-84
2023/09/11 01:56:02;;;;;;;;;;;20.10;99.90;;;;;;5076086;28;19924;-85
2023/09/11 01:58:29;;;;;;;;;;;20.10;99.90;;;;;;5077257;28;19924;-84
2023/09/11 02:00:55;;;;;;;;;;;20.00;99.90;;;;;;5081579;28;19935;-84
2023/09/11 02:03:22;;;;;;;;;;;20.00;99.90;;;;;;5071767;28;19925;-85
2023/09/11 02:05:49;;;;;;;;;;;20.00;99.90;;;;;;5080408;28;19990;-85
2023/09/11 02:08:15;;;;;;;;;;;20.00;99.90;;;;;;5084370;28;20000;-85
2023/09/11 02:10:42;;;;;;;;;;;19.90;99.90;;;;;;5063454;28;19924;-86
2023/09/11 02:13:09;;;;;;;;;;;20.00;99.90;;;;;;5085826;28;19924;-85
2023/09/11 02:15:35;;;;;;;;;;;20.00;99.90;;;;;;5066341;28;20321;-84
2023/09/11 02:18:02;;;;;;;;;;;20.00;99.90;;;;;;5085112;28;19935;-85
2023/09/11 02:20:29;;;;;;;;;;;19.90;99.90;;;;;;5088419;28;19971;-85
2023/09/11 02:22:55;;;;;;;;;;;19.90;99.90;;;;;;5075263;28;19928;-85
2023/09/11 02:25:22;;;;;;;;;;;19.90;99.90;;;;;;5067061;28;19925;-84
2023/09/11 02:27:49;;;;;;;;;;;19.90;99.90;;;;;;5084607;28;19962;-86
2023/09/11 02:30:16;;;;;;;;;;;19.90;99.90;;;;;;5082024;28;19929;-85
2023/09/11 02:32:43;;;;;;;;;;;19.90;99.90;;;;;;5089377;28;19928;-86
2023/09/11 02:35:09;;;;;;;;;;;19.80;99.90;;;;;;5089756;28;19928;-85
2023/09/11 02:37:36;;;;;;;;;;;19.80;99.90;;;;;;5072467;28;19924;-85
2023/09/11 02:40:09;;;;;;;;;;;19.80;99.90;;;;;;5083877;28;19924;-84
2023/09/11 02:42:36;;;;;;;;;;;19.80;99.90;;;;;;5072279;28;19947;-86
2023/09/11 02:45:03;;;;;;;;;;;19.70;99.90;;;;;;5079432;28;19924;-84
2023/09/11 02:47:35;;;;;;;;;;;19.70;99.90;;;;;;5093827;28;19924;-85
2023/09/11 02:50:09;;;;;;;;;;;19.70;99.90;;;;;;5077372;28;19928;-86
2023/09/11 02:52:40;;;;;;;;;;;19.80;99.90;;;;;;5092510;28;19928;-85
2023/09/11 02:55:11;;;;;;;;;;;19.70;99.90;;;;;;5090976;28;19946;-85
2023/09/11 02:57:41;;;;;;;;;;;19.70;99.90;;;;;;5090013;28;19940;-85
2023/09/11 03:00:10;;;;;;;;;;;19.70;99.90;;;;;;5093501;28;19925;-84
2023/09/11 03:02:37;;;;;;;;;;;19.70;99.90;;;;;;5066345;28;19950;-85
2023/09/11 03:05:04;;;;;;;;;;;19.60;99.90;;;;;;5083627;28;19925;-85
2023/09/11 03:07:30;;;;;;;;;;;19.70;99.90;;;;;;5084278;28;19928;-85
2023/09/11 03:09:57;;;;;;;;;;;19.70;99.90;;;;;;5078639;28;19967;-84
2023/09/11 03:12:24;;;;;;;;;;;19.60;99.90;;;;;;5081943;28;19925;-85
2023/09/11 03:14:54;;;;;;;;;;;19.70;99.90;;;;;;5081399;28;19925;-84
2023/09/11 03:17:20;;;;;;;;;;;19.60;99.90;;;;;;5083507;28;19947;-85
2023/09/11 03:19:47;;;;;;;;;;;19.60;99.90;;;;;;5079970;28;19924;-85
2023/09/11 03:22:14;;;;;;;;;;;19.50;99.90;;;;;;5080115;28;19925;-84
2023/09/11 03:24:40;;;;;;;;;;;19.60;99.90;;;;;;5078998;28;19996;-84
2023/09/11 03:27:07;;;;;;;;;;;19.50;99.90;;;;;;5077558;28;19990;-85
2023/09/11 03:29:34;;;;;;;;;;;19.50;99.90;;;;;;5060829;28;19924;-84
2023/09/11 03:32:00;;;;;;;;;;;19.50;99.90;;;;;;5060433;28;19925;-85
2023/09/11 03:34:27;;;;;;;;;;;19.50;99.90;;;;;;5078366;28;20387;-84
2023/09/11 03:36:54;;;;;;;;;;;19.60;99.90;;;;;;5070659;28;20354;-84
2023/09/11 03:39:20;;;;;;;;;;;19.50;99.90;;;;;;5066056;28;19971;-84
2023/09/11 03:41:47;;;;;;;;;;;19.50;99.90;;;;;;5080030;28;19985;-86
2023/09/11 03:44:14;;;;;;;;;;;19.50;99.90;;;;;;5081111;28;19925;-84
2023/09/11 03:46:40;;;;;;;;;;;19.40;99.90;;;;;;5062729;28;20302;-85
2023/09/11 03:49:07;;;;;;;;;;;19.50;99.90;;;;;;5071697;28;19931;-84
2023/09/11 03:51:34;;;;;;;;;;;19.40;99.90;;;;;;5084353;28;20069;-85
2023/09/11 03:54:05;;;;;;;;;;;19.40;99.90;;;;;;5076920;28;19947;-84
2023/09/11 03:56:31;;;;;;;;;;;19.40;99.90;;;;;;5084513;28;19931;-84
2023/09/11 03:58:58;;;;;;;;;;;19.40;99.90;;;;;;5084152;28;19932;-85
2023/09/11 04:01:25;;;;;;;;;;;19.30;99.90;;;;;;5081616;28;20391;-85
2023/09/11 04:03:51;;;;;;;;;;;19.40;99.90;;;;;;5065142;28;19931;-84
2023/09/11 04:06:19;;;;;;;;;;;19.40;99.90;;;;;;5064369;28;19928;-85
2023/09/11 04:08:48;;;;;;;;;;;19.40;99.90;;;;;;5086494;28;19951;-84
2023/09/11 04:11:17;;;;;;;;;;;19.30;99.90;;;;;;5083098;28;20363;-85
2023/09/11 04:13:44;;;;;;;;;;;19.30;99.90;;;;;;5084061;28;19943;-84
2023/09/11 04:16:10;;;;;;;;;;;19.30;99.90;;;;;;5078347;28;20060;-84
2023/09/11 04:18:37;;;;;;;;;;;19.30;99.90;;;;;;5072398;28;19968;-84
2023/09/11 04:21:05;;;;;;;;;;;19.30;99.90;;;;;;5080325;28;19925;-84
2023/09/11 04:23:31;;;;;;;;;;;19.30;99.90;;;;;;5063950;28;19970;-84
2023/09/11 04:25:58;;;;;;;;;;;19.30;99.90;;;;;;5081952;28;19925;-85
2023/09/11 04:28:25;;;;;;;;;;;19.20;99.90;;;;;;5082818;28;19932;-86
2023/09/11 04:30:52;;;;;;;;;;;19.20;99.90;;;;;;5083601;28;19924;-84
2023/09/11 04:33:18;;;;;;;;;;;19.20;99.90;;;;;;5083089;28;19924;-84
2023/09/11 04:35:45;;;;;;;;;;;19.20;99.90;;;;;;5079443;28;19928;-85
2023/09/11 04:38:12;;;;;;;;;;;19.20;99.90;;;;;;5066155;28;19954;-85
2023/09/11 04:40:39;;;;;;;;;;;19.20;99.90;;;;;;5066774;28;19924;-84
2023/09/11 04:43:05;;;;;;;;;;;19.10;99.90;;;;;;5084699;28;19967;-85
2023/09/11 04:45:33;;;;;;;;;;;19.10;99.90;;;;;;5071985;28;19967;-85
2023/09/11 04:48:02;;;;;;;;;;;19.10;99.90;;;;;;5062822;28;19971;-84
2023/09/11 04:50:29;;;;;;;;;;;19.10;99.90;;;;;;5087259;28;20387;-85
2023/09/11 04:52:56;;;;;;;;;;;19.10;99.90;;;;;;5082229;28;19930;-85
2023/09/11 04:55:23;;;;;;;;;;;19.10;99.90;;;;;;5067739;28;20054;-84
2023/09/11 04:57:49;;;;;;;;;;;19.00;99.90;;;;;;5084743;28;19956;-84
2023/09/11 05:00:16;;;;;;;;;;;19.00;99.90;;;;;;5084199;28;19955;-85
2023/09/11 05:02:46;;;;;;;;;;;19.00;99.90;;;;;;5084064;28;19929;-85
2023/09/11 05:05:13;;;;;;;;;;;19.00;99.90;;;;;;5086456;28;19924;-84
2023/09/11 05:07:41;;;;;;;;;;;19.00;99.90;;;;;;5065919;28;19971;-85
2023/09/11 05:10:08;;;;;;;;;;;18.90;99.90;;;;;;5071182;28;19924;-85
2023/09/11 05:12:35;;;;;;;;;;;18.90;99.90;;;;;;5062016;28;19947;-84
2023/09/11 05:15:02;;;;;;;;;;;18.90;99.90;;;;;;5080897;28;19947;-84
2023/09/11 05:17:29;;;;;;;;;;;18.90;99.90;;;;;;5084042;28;19924;-84
2023/09/11 05:19:56;;;;;;;;;;;18.80;99.90;;;;;;5083211;28;19990;-84
2023/09/11 05:22:22;;;;;;;;;;;18.90;99.90;;;;;;5081508;28;20407;-83
2023/09/11 05:24:49;;;;;;;;;;;18.80;99.90;;;;;;5080029;28;19924;-85
2023/09/11 05:27:16;;;;;;;;;;;18.80;99.90;;;;;;5070301;28;19932;-84
2023/09/11 05:29:43;;;;;;;;;;;18.80;99.90;;;;;;5080457;28;19954;-85
2023/09/11 05:32:10;;;;;;;;;;;18.80;99.90;;;;;;5073891;28;19925;-84
2023/09/11 05:34:36;;;;;;;;;;;18.90;99.90;;;;;;5084721;28;19928;-85
2023/09/11 05:37:03;;;;;;;;;;;18.80;99.90;;;;;;5085895;28;19924;-84
2023/09/11 05:39:30;;;;;;;;;;;18.80;99.90;;;;;;5082779;28;19925;-84
2023/09/11 05:41:56;;;;;;;;;;;18.80;99.90;;;;;;5062581;28;19925;-85
2023/09/11 05:44:23;;;;;;;;;;;18.90;99.90;;;;;;5082840;28;19987;-84
2023/09/11 05:46:50;;;;;;;;;;;18.80;99.90;;;;;;5083441;28;20422;-86
2023/09/11 05:49:16;;;;;;;;;;;18.80;99.90;;;;;;5084441;28;19924;-84
2023/09/11 05:51:43;;;;;;;;;;;18.90;99.90;;;;;;5067772;28;19928;-84
2023/09/11 05:54:11;;;;;;;;;;;18.90;99.90;;;;;;5085346;28;20387;-84
2023/09/11 05:56:38;;;;;;;;;;;18.90;99.90;;;;;;5066552;28;19970;-84
2023/09/11 05:59:04;;;;;;;;;;;18.90;99.90;;;;;;5085578;28;19924;-84
2023/09/11 06:01:31;;;;;;;;;;;18.90;99.90;;;;;;5083701;28;19964;-84
2023/09/11 06:03:58;;;;;;;;;;;19.00;99.90;;;;;;5065774;28;19980;-85
2023/09/11 06:06:25;;;;;;;;;;;19.00;99.90;;;;;;5067860;28;19932;-86
2023/09/11 06:08:52;;;;;;;;;;;19.00;99.90;;;;;;5067863;28;20391;-85
2023/09/11 06:11:18;;;;;;;;;;;19.00;99.90;;;;;;5078746;28;19924;-84
2023/09/11 06:13:45;;;;;;;;;;;19.10;99.90;;;;;;5080371;28;19983;-84
2023/09/11 06:16:12;;;;;;;;;;;19.10;99.90;;;;;;5068740;28;19928;-84
2023/09/11 06:18:38;;;;;;;;;;;19.20;99.90;;;;;;5079501;28;19928;-85
2023/09/11 06:21:06;;;;;;;;;;;19.10;99.90;;;;;;5059915;28;19952;-84
2023/09/11 06:23:32;;;;;;;;;;;19.20;99.90;;;;;;5082921;28;20200;-85
2023/09/11 06:25:59;;;;;;;;;;;19.20;99.90;;;;;;5083714;28;19924;-86
2023/09/11 06:28:26;;;;;;;;;;;19.20;99.90;;;;;;5066531;28;19951;-84
2023/09/11 06:30:53;;;;;;;;;;;19.30;99.90;;;;;;5074253;28;20406;-84
2023/09/11 06:33:19;;;;;;;;;;;19.30;99.90;;;;;;5082321;28;19938;-86
2023/09/11 06:35:46;;;;;;;;;;;19.30;99.90;;;;;;5083493;28;19924;-85
2023/09/11 06:38:13;;;;;;;;;;;19.40;99.90;;;;;;5067540;28;20372;-84
2023/09/11 06:40:39;;;;;;;;;;;19.30;99.90;;;;;;5079612;28;19947;-85
2023/09/11 06:43:06;;;;;;;;;;;19.40;99.90;;;;;;5077078;28;19987;-85
2023/09/11 06:45:34;;;;;;;;;;;19.40;99.90;;;;;;5061425;28;19932;-85
2023/09/11 06:48:01;;;;;;;;;;;19.50;99.90;;;;;;5059114;28;20371;-84
2023/09/11 06:50:28;;;;;;;;;;;19.50;99.90;;;;;;5079601;28;20471;-84
2023/09/11 06:52:54;;;;;;;;;;;19.60;99.90;;;;;;5079149;28;19945;-84
2023/09/11 06:55:21;;;;;;;;;;;19.60;99.90;;;;;;5078773;28;20314;-85
2023/09/11 06:57:58;;;;;;;;;;;19.60;99.90;;;;;;5081092;28;20418;-85
2023/09/11 07:00:25;;;;;;;;;;;19.70;99.90;;;;;;5082145;28;20380;-85
2023/09/11 07:02:52;;;;;;;;;;;19.70;99.90;;;;;;5067833;28;20015;-84
2023/09/11 07:05:20;;;;;;;;;;;19.70;99.90;;;;;;5072670;28;20374;-85
2023/09/11 07:07:47;;;;;;;;;;;19.80;99.90;;;;;;5081799;28;19932;-84
2023/09/11 07:10:19;;;;;;;;;;;19.90;99.90;;;;;;5078674;28;19925;-85
2023/09/11 07:13:05;;;;;;;;;;;19.80;99.90;;;;;;5080358;28;19928;-85
2023/09/11 07:15:32;;;;;;;;;;;20.00;99.90;;;;;;5085494;28;19925;-86
2023/09/11 07:18:00;;;;;;;;;;;20.00;99.90;;;;;;5083051;28;19943;-86
2023/09/11 07:20:27;;;;;;;;;;;20.00;99.90;;;;;;5076089;28;20027;-85
2023/09/11 07:22:54;;;;;;;;;;;20.00;99.90;;;;;;5083626;28;19928;-85
2023/09/11 07:25:22;;;;;;;;;;;20.10;99.90;;;;;;5085294;28;19924;-85
2023/09/11 07:27:50;;;;;;;;;;;20.20;99.90;;;;;;5083524;28;20429;-85
2023/09/11 07:30:17;;;;;;;;;;;20.20;99.90;;;;;;5084911;28;19947;-85
2023/09/11 07:32:43;;;;;;;;;;;20.30;99.90;;;;;;5087507;28;20573;-85
2023/09/11 07:35:10;;;;;;;;;;;20.30;99.90;;;;;;5069910;28;19924;-85
2023/09/11 07:37:37;;;;;;;;;;;20.40;99.90;;;;;;5068308;28;20328;-85
2023/09/11 07:40:07;;;;;;;;;;;20.40;99.90;;;;;;5083314;28;20054;-86
2023/09/11 07:42:33;;;;;;;;;;;20.50;99.90;;;;;;5083974;28;20351;-85
2023/09/11 07:45:00;;;;;;;;;;;20.50;99.90;;;;;;5086187;28;19959;-85
2023/09/11 07:47:27;;;;;;;;;;;20.60;99.90;;;;;;5088964;28;19980;-86
2023/09/11 07:49:53;;;;;;;;;;;20.60;99.90;;;;;;5087994;28;19954;-85
2023/09/11 07:52:20;;;;;;;;;;;20.70;99.90;;;;;;5077182;28;19951;-85
2023/09/11 07:54:47;;;;;;;;;;;20.80;99.90;;;;;;5086307;28;20276;-84
2023/09/11 07:57:13;;;;;;;;;;;20.80;99.90;;;;;;5082773;28;19989;-84
2023/09/11 07:59:40;;;;;;;;;;;20.90;99.90;;;;;;5086876;28;19924;-85
2023/09/11 08:02:07;;;;;;;;;;;20.90;99.90;;;;;;5070819;28;19928;-86
2023/09/11 08:04:35;;;;;;;;;;;21.00;99.90;;;;;;5087556;28;19924;-84
2023/09/11 08:07:04;;;;;;;;;;;21.10;99.90;;;;;;5087250;28;19924;-84
2023/09/11 08:09:31;;;;;;;;;;;21.10;99.90;;;;;;5085121;28;19936;-85
2023/09/11 08:11:57;;;;;;;;;;;21.10;99.90;;;;;;5083829;28;19936;-86
2023/09/11 08:14:24;;;;;;;;;;;21.20;99.90;;;;;;5070274;28;19924;-83
2023/09/11 08:16:51;;;;;;;;;;;21.30;99.90;;;;;;5064041;28;19932;-86
2023/09/11 08:19:17;;;;;;;;;;;21.30;99.90;;;;;;5081648;28;19924;-85
2023/09/11 08:21:45;;;;;;;;;;;21.40;99.90;;;;;;5065857;28;19947;-84
2023/09/11 08:24:13;;;;;;;;;;;21.40;99.90;;;;;;5063562;28;20355;-84
2023/09/11 08:26:39;;;;;;;;;;;21.50;99.90;;;;;;5081111;28;19924;-85
2023/09/11 08:29:06;;;;;;;;;;;21.60;99.90;;;;;;5080649;28;19944;-83
2023/09/11 08:31:33;;;;;;;;;;;21.60;99.90;;;;;;5079834;28;19925;-85
2023/09/11 08:34:00;;;;;;;;;;;21.70;99.90;;;;;;5082812;28;20007;-84
2023/09/11 08:36:27;;;;;;;;;;;21.70;99.90;;;;;;5083263;28;19932;-84
2023/09/11 08:38:53;;;;;;;;;;;21.80;99.90;;;;;;5072924;28;19932;-85
2023/09/11 08:41:22;;;;;;;;;;;21.90;99.90;;;;;;5068626;28;19935;-86
2023/09/11 08:43:49;;;;;;;;;;;21.90;99.90;;;;;;5086832;28;19924;-86
2023/09/11 08:46:16;;;;;;;;;;;21.90;99.90;;;;;;5086020;28;20304;-85
2023/09/11 08:48:45;;;;;;;;;;;22.00;99.90;;;;;;5065816;28;19935;-85
2023/09/11 08:51:17;;;;;;;;;;;22.10;99.90;;;;;;5062525;28;20020;-85
2023/09/11 08:53:45;;;;;;;;;;;22.10;99.90;;;;;;5081584;28;20280;-85
2023/09/11 08:56:12;;;;;;;;;;;22.10;99.90;;;;;;5080529;28;20375;-84
2023/09/11 08:58:40;;;;;;;;;;;22.20;99.90;;;;;;5082489;28;20387;-85
2023/09/11 09:01:07;;;;;;;;;;;22.30;99.90;;;;;;5081675;28;19928;-85
2023/09/11 09:03:34;;;;;;;;;;;22.30;99.90;;;;;;5070858;28;19925;-85
2023/09/11 09:06:02;;;;;;;;;;;22.30;99.90;;;;;;5079509;28;19924;-85
2023/09/11 09:08:29;;;;;;;;;;;22.40;99.90;;;;;;5061397;28;19950;-85
2023/09/11 09:10:56;;;;;;;;;;;22.50;99.90;;;;;;5060966;28;20023;-85
2023/09/11 09:13:22;;;;;;;;;;;22.50;99.90;;;;;;5079634;28;19977;-85
2023/09/11 09:15:49;;;;;;;;;;;22.60;99.90;;;;;;5080719;28;19924;-86
2023/09/11 09:18:16;;;;;;;;;;;22.60;99.90;;;;;;5085185;28;19928;-86
2023/09/11 09:20:42;;;;;;;;;;;22.70;99.90;;;;;;5087890;28;19936;-86
2023/09/11 09:23:10;;;;;;;;;;;22.80;99.90;;;;;;5069133;28;19944;-85
2023/09/11 09:25:37;;;;;;;;;;;22.80;99.90;;;;;;5085241;28;19932;-85
2023/09/11 09:28:04;;;;;;;;;;;22.90;99.90;;;;;;5085288;28;19935;-85
2023/09/11 09:30:32;;;;;;;;;;;23.00;99.90;;;;;;5084874;28;19946;-85
2023/09/11 09:33:01;;;;;;;;;;;23.10;99.90;;;;;;5083521;28;19924;-83
2023/09/11 09:35:32;;;;;;;;;;;23.20;99.90;;;;;;5082563;28;19978;-85
2023/09/11 09:37:59;;;;;;;;;;;23.40;99.90;;;;;;5084033;28;19925;-84
2023/09/11 09:40:29;;;;;;;;;;;23.50;99.90;;;;;;5063397;28;20370;-85
2023/09/11 09:42:59;;;;;;;;;;;23.60;99.90;;;;;;5077699;28;19929;-85
2023/09/11 09:45:26;;;;;;;;;;;23.60;99.90;;;;;;5082324;28;20440;-85
2023/09/11 09:48:09;;;;;;;;;;;23.70;99.90;;;;;;5062083;28;19924;-85
2023/09/11 09:50:46;;;;;;;;;;;23.70;99.90;;;;;;5081357;28;19947;-85
2023/09/11 09:53:23;;;;;;;;;;;23.80;99.90;;;;;;5067303;28;20015;-85
2023/09/11 09:55:50;;;;;;;;;;;23.90;99.90;;;;;;5083947;28;20007;-85
2023/09/11 09:58:24;;;;;;;;;;;24.00;99.90;;;;;;5083009;28;19929;-85
2023/09/11 10:00:57;;;;;;;;;;;24.00;99.90;;;;;;5085471;28;19925;-86
2023/09/11 10:03:23;;;;;;;;;;;24.10;99.90;;;;;;5087004;28;19986;-85
2023/09/11 10:05:50;;;;;;;;;;;24.10;99.90;;;;;;5086559;28;19931;-85
2023/09/11 10:08:17;;;;;;;;;;;24.20;99.90;;;;;;5085415;28;19971;-85
2023/09/11 10:10:44;;;;;;;;;;;24.20;99.90;;;;;;5085633;28;19924;-86
2023/09/11 10:13:15;;;;;;;;;;;24.30;99.90;;;;;;5086268;28;19931;-85
2023/09/11 10:15:43;;;;;;;;;;;24.30;99.90;;;;;;5071972;28;19932;-85
2023/09/11 10:18:12;;;;;;;;;;;24.40;99.90;;;;;;5081962;28;19928;-85
2023/09/11 10:20:42;;;;;;;;;;;24.40;99.90;;;;;;5085703;28;19978;-86
2023/09/11 10:23:12;;;;;;;;;;;24.50;99.90;;;;;;5086092;28;19925;-86
2023/09/11 10:25:40;;;;;;;;;;;24.60;99.90;;;;;;5073067;28;19963;-87
2023/09/11 10:28:28;;;;;;;;;;;24.70;99.90;;;;;;5070502;28;19924;-86
2023/09/11 10:30:58;;;;;;;;;;;24.70;99.90;;;;;;5068002;28;20020;-86
2023/09/11 10:33:34;;;;;;;;;;;24.80;99.90;;;;;;5071543;28;19935;-87
2023/09/11 10:36:13;;;;;;;;;;;24.80;99.90;;;;;;5081676;28;19933;-86
2023/09/11 10:38:41;;;;;;;;;;;24.80;99.90;;;;;;5067432;28;19935;-87
2023/09/11 10:41:08;;;;;;;;;;;25.00;99.90;;;;;;5088340;28;19925;-86
2023/09/11 10:43:35;;;;;;;;;;;25.10;99.90;;;;;;5090148;28;19951;-86
2023/09/11 10:46:13;;;;;;;;;;;25.10;99.90;;;;;;5082010;28;19985;-85
2023/09/11 10:48:42;;;;;;;;;;;25.20;99.90;;;;;;5082121;28;19924;-87
2023/09/11 10:51:08;;;;;;;;;;;25.20;99.90;;;;;;5080987;28;19928;-86
2023/09/11 10:53:35;;;;;;;;;;;25.30;99.90;;;;;;5067078;28;20023;-86
2023/09/11 10:56:03;;;;;;;;;;;25.30;99.90;;;;;;5079185;28;20027;-86
2023/09/11 10:58:30;;;;;;;;;;;25.30;99.90;;;;;;5059110;28;19924;-85
2023/09/11 11:00:57;;;;;;;;;;;25.30;99.90;;;;;;5081070;28;19928;-86
2023/09/11 11:03:33;;;;;;;;;;;25.40;99.90;;;;;;5069687;28;19924;-84
2023/09/11 11:06:01;;;;;;;;;;;25.50;99.90;;;;;;5089945;28;19924;-87
2023/09/11 11:08:31;;;;;;;;;;;25.50;99.90;;;;;;5089333;28;19956;-85
2023/09/11 11:11:00;;;;;;;;;;;25.50;99.90;;;;;;5086523;28;19939;-87
2023/09/11 11:13:26;;;;;;;;;;;25.50;99.90;;;;;;5088742;28;19936;-87
2023/09/11 11:16:12;;;;;;;;;;;25.50;99.90;;;;;;5070572;28;19963;-85
2023/09/11 11:18:39;;;;;;;;;;;25.60;99.90;;;;;;5082096;28;19924;-83
2023/09/11 11:21:08;;;;;;;;;;;25.60;99.90;;;;;;5070132;28;19939;-83
2023/09/11 11:23:35;;;;;;;;;;;25.60;99.90;;;;;;5068414;28;19925;-84
2023/09/11 11:26:03;;;;;;;;;;;25.70;99.90;;;;;;5087084;28;19935;-84
2023/09/11 11:28:40;;;;;;;;;;;25.70;99.90;;;;;;5066508;28;19925;-84
2023/09/11 11:31:08;;;;;;;;;;;25.70;99.90;;;;;;5084249;28;19940;-84
2023/09/11 11:33:38;;;;;;;;;;;25.90;99.90;;;;;;5088594;28;19975;-84
2023/09/11 11:36:08;;;;;;;;;;;25.90;99.90;;;;;;5086218;28;20031;-84
2023/09/11 11:38:36;;;;;;;;;;;26.00;99.90;;;;;;5085525;28;19925;-84
2023/09/11 11:41:03;;;;;;;;;;;26.00;99.90;;;;;;5086551;28;19982;-84
2023/09/11 11:43:30;;;;;;;;;;;26.10;99.90;;;;;;5087678;28;19925;-83
2023/09/11 11:45:57;;;;;;;;;;;26.20;99.90;;;;;;5088512;28;19978;-84
2023/09/11 11:48:27;;;;;;;;;;;26.30;99.90;;;;;;5086548;28;19924;-83
2023/09/11 11:50:55;;;;;;;;;;;26.30;99.90;;;;;;5085257;28;19950;-83
2023/09/11 11:53:23;;;;;;;;;;;26.30;99.90;;;;;;5085311;28;19974;-84
2023/09/11 11:55:51;;;;;;;;;;;26.50;99.90;;;;;;5077006;28;19925;-84
2023/09/11 11:58:17;;;;;;;;;;;26.50;99.90;;;;;;5066991;28;19933;-85
2023/09/11 12:01:00;;;;;;;;;;;26.50;99.90;;;;;;5088142;28;19924;-84
2023/09/11 12:03:29;;;;;;;;;;;26.60;99.90;;;;;;5085147;28;20303;-84
2023/09/11 12:05:57;;;;;;;;;;;26.60;99.90;;;;;;5070134;28;19924;-84
2023/09/11 12:08:24;;;;;;;;;;;26.60;99.90;;;;;;5082908;28;19978;-84
2023/09/11 12:10:50;;;;;;;;;;;26.70;99.90;;;;;;5086700;28;19924;-84
2023/09/11 12:13:18;;;;;;;;;;;26.70;99.90;;;;;;5069257;28;19939;-85
2023/09/11 12:15:56;;;;;;;;;;;26.70;99.90;;;;;;5079306;28;19952;-84
2023/09/11 12:18:26;;;;;;;;;;;26.70;99.90;;;;;;5068654;28;19925;-85
2023/09/11 12:20:54;;;;;;;;;;;26.70;99.90;;;;;;5068370;28;19928;-84
2023/09/11 12:23:21;;;;;;;;;;;26.80;99.90;;;;;;5084434;28;19978;-85
2023/09/11 12:25:47;;;;;;;;;;;26.80;99.90;;;;;;5083946;28;19929;-84
2023/09/11 12:28:14;;;;;;;;;;;26.80;99.90;;;;;;5078575;28;19925;-84
2023/09/11 12:30:45;;;;;;;;;;;26.90;99.90;;;;;;5084062;28;19924;-84
2023/09/11 12:33:12;;;;;;;;;;;27.10;99.90;;;;;;5084794;28;19932;-86
2023/09/11 12:35:39;;;;;;;;;;;27.10;99.90;;;;;;5067015;28;19963;-86
2023/09/11 12:38:12;;;;;;;;;;;27.10;99.90;;;;;;5078542;28;19946;-85
2023/09/11 12:40:40;;;;;;;;;;;27.20;99.90;;;;;;5078052;28;19924;-83
2023/09/11 12:43:07;;;;;;;;;;;27.20;99.90;;;;;;5067422;28;19924;-84
2023/09/11 12:45:34;;;;;;;;;;;27.10;99.90;;;;;;5067144;28;20332;-84
2023/09/11 12:48:02;;;;;;;;;;;27.10;99.90;;;;;;5070003;28;19959;-85
2023/09/11 12:50:29;;;;;;;;;;;27.10;99.90;;;;;;5086800;28;19977;-84
2023/09/11 12:52:57;;;;;;;;;;;27.20;99.90;;;;;;5087306;28;19925;-84
2023/09/11 12:55:27;;;;;;;;;;;27.20;99.90;;;;;;5086138;28;19924;-86
2023/09/11 12:57:57;;;;;;;;;;;27.20;99.90;;;;;;5089728;28;19951;-86
2023/09/11 13:00:28;;;;;;;;;;;27.20;99.90;;;;;;5089095;28;19939;-86
2023/09/11 13:02:55;;;;;;;;;;;27.20;99.90;;;;;;5090094;28;19928;-85
2023/09/11 13:05:22;;;;;;;;;;;27.20;99.90;;;;;;5089888;28;19924;-85
2023/09/11 13:07:49;;;;;;;;;;;27.20;99.90;;;;;;5088656;28;19924;-84
2023/09/11 13:10:16;;;;;;;;;;;27.20;99.90;;;;;;5086794;28;20303;-85
2023/09/11 13:12:46;;;;;;;;;;;27.20;99.90;;;;;;5088585;28;19928;-85
2023/09/11 13:15:13;;;;;;;;;;;27.20;99.90;;;;;;5090375;28;19925;-85
2023/09/11 13:17:41;;;;;;;;;;;27.20;99.90;;;;;;5083837;28;19925;-85
2023/09/11 13:20:08;;;;;;;;;;;27.20;99.90;;;;;;5072888;28;19928;-85
2023/09/11 13:22:34;;;;;;;;;;;27.20;99.90;;;;;;5079808;28;19925;-84
2023/09/11 13:25:01;;;;;;;;;;;27.30;99.90;;;;;;5082207;28;19964;-85
2023/09/11 13:27:28;;;;;;;;;;;27.30;99.90;;;;;;5083408;28;19998;-85
2023/09/11 13:29:54;;;;;;;;;;;27.40;99.90;;;;;;5084846;28;20419;-84
2023/09/11 13:32:21;;;;;;;;;;;27.40;99.90;;;;;;5065753;28;19931;-85
2023/09/11 13:34:48;;;;;;;;;;;27.40;99.90;;;;;;5082424;28;20021;-84
2023/09/11 13:37:14;;;;;;;;;;;27.40;99.90;;;;;;5078394;28;19978;-85
2023/09/11 13:39:41;;;;;;;;;;;27.40;99.90;;;;;;5084317;28;19925;-85
2023/09/11 13:42:08;;;;;;;;;;;27.40;99.90;;;;;;5065064;28;19979;-85
2023/09/11 13:44:35;;;;;;;;;;;27.40;99.90;;;;;;5063947;28;19954;-85
2023/09/11 13:47:01;;;;;;;;;;;27.40;99.90;;;;;;5083492;28;19966;-84
2023/09/11 13:49:28;;;;;;;;;;;27.40;99.90;;;;;;5063928;28;20024;-85
2023/09/11 13:51:55;;;;;;;;;;;27.40;99.90;;;;;;5082481;28;19985;-85
2023/09/11 13:54:21;;;;;;;;;;;27.40;99.90;;;;;;5070998;28;20015;-85
2023/09/11 13:56:48;;;;;;;;;;;27.50;99.90;;;;;;5061915;28;19955;-84
2023/09/11 13:59:15;;;;;;;;;;;27.50;99.90;;;;;;5083194;28;19946;-84
2023/09/11 14:01:42;;;;;;;;;;;27.60;99.90;;;;;;5071515;28;19924;-85
2023/09/11 14:04:09;;;;;;;;;;;27.60;99.90;;;;;;5082915;28;19931;-85
2023/09/11 14:06:35;;;;;;;;;;;27.80;99.90;;;;;;5083241;28;19980;-85
2023/09/11 14:09:02;;;;;;;;;;;27.80;99.90;;;;;;5072174;28;20307;-85
2023/09/11 14:11:29;;;;;;;;;;;27.90;99.90;;;;;;5083226;28;19950;-84
2023/09/11 14:13:56;;;;;;;;;;;28.00;99.90;;;;;;5083975;28;19931;-85
2023/09/11 14:16:23;;;;;;;;;;;28.10;99.90;;;;;;5064160;28;19936;-85
2023/09/11 14:18:49;;;;;;;;;;;28.10;99.90;;;;;;5076227;28;19924;-85